Saturday, September 5, 2015, 10:11 AM EDT

KSHD, Staunton / Shenandoah

Location: Weyers Cave, VA, United States Lat: 38.267
Local Time: 10:11 AM EDT (14:11 GMT) Lon: -78.9
Time Zone: US/Eastern Elev: 1200 ft

Show me the last for .
Show Decoded

2015-09-05 09:35 METAR KSHD 051335Z AUTO 04004KT 5SM HZ SCT008 BKN049 24/21 A3026 RMK AO2
                 T02440212 =
2015-09-05 09:15 METAR KSHD 051315Z AUTO 03005KT 4SM BR SCT005 OVC060 23/21 A3027 RMK AO2
                 T02280209 =
2015-09-05 08:55 METAR KSHD 051255Z AUTO 05005KT 4SM BR SCT005 OVC055 23/21 A3027 RMK AO2
                 T02270210 =
2015-09-05 08:35 METAR KSHD 051235Z AUTO 06003KT 3SM BR SCT005 SCT023 OVC055 22/20 A3027 RMK AO2
                 T02180201 =
2015-09-05 08:15 METAR KSHD 051215Z AUTO 04003KT 3SM BR SCT025 SCT033 OVC055 22/20 A3027 RMK AO2
                 T02170201 =
2015-09-05 07:55 METAR KSHD 051155Z AUTO 34003KT 3SM BR SCT021 BKN034 OVC060 21/20 A3026 RMK AO2
                 70001 T02090197 10209 20178 =
2015-09-05 07:35 METAR KSHD 051135Z AUTO 00000KT 2 1/2SM BR SCT023 BKN037 OVC060 21/19 A3025 RMK
                 AO2 T02050193 =
2015-09-05 07:15 METAR KSHD 051115Z AUTO 00000KT 4SM BR SCT023 BKN039 OVC050 20/19 A3025 RMK AO2
                 T02000190 =
2015-09-05 06:55 METAR KSHD 051055Z AUTO 00000KT 5SM BR SCT023 OVC050 19/18 A3024 RMK AO2
                 T01930181 =
2015-09-05 06:35 METAR KSHD 051035Z AUTO 00000KT 4SM BR SCT042 OVC048 19/18 A3024 RMK AO2
                 T01930182 =
2015-09-05 06:15 METAR KSHD 051015Z AUTO 00000KT 4SM BR SCT028 SCT033 OVC042 19/18 A3023 RMK AO2
                 T01920181 =
2015-09-05 05:55 METAR KSHD 050955Z AUTO 00000KT 4SM BR SCT024 SCT031 BKN040 19/18 A3023 RMK AO2
                 T01890179 =
2015-09-05 05:35 METAR KSHD 050935Z AUTO 00000KT 3SM BR SCT024 SCT029 19/18 A3021 RMK AO2
                 T01850175 =
2015-09-05 05:15 METAR KSHD 050915Z AUTO 00000KT 4SM BR SCT024 19/18 A3021 RMK AO2 T01890179 =
2015-09-05 04:55 METAR KSHD 050855Z AUTO 00000KT 5SM BR CLR 19/18 A3020 RMK AO2 T01890178 =
2015-09-05 04:35 METAR KSHD 050835Z AUTO 00000KT 4SM BR SCT030 19/18 A3020 RMK AO2 T01900180 =
2015-09-05 04:15 METAR KSHD 050815Z AUTO 00000KT 3SM BR BKN028 19/18 A3020 RMK AO2 T01920182 =
2015-09-05 03:55 METAR KSHD 050755Z AUTO 00000KT 3SM BR SCT024 SCT028 19/18 A3020 RMK AO2
                 T01890179 =
2015-09-05 03:35 METAR KSHD 050735Z AUTO 00000KT 3SM BR BKN026 BKN031 19/18 A3020 RMK AO2
                 T01900180 =
2015-09-05 03:15 METAR KSHD 050715Z AUTO 00000KT 3SM BR BKN025 BKN030 19/18 A3020 RMK AO2
                 T01900179 =
2015-09-05 02:55 METAR KSHD 050655Z AUTO 00000KT 5SM BR SCT030 20/18 A3019 RMK AO2 T01950184 =
2015-09-05 02:35 METAR KSHD 050635Z AUTO 00000KT 3SM BR CLR 19/18 A3019 RMK AO2 T01900178 =
2015-09-05 02:15 METAR KSHD 050615Z AUTO 00000KT 4SM BR CLR 20/19 A3019 RMK AO2 T01950185 =
2015-09-05 01:55 METAR KSHD 050555Z AUTO 00000KT 5SM BR CLR 20/18 A3019 RMK AO2 T01970183 10226
                 20196 403160168 =
2015-09-05 01:35 METAR KSHD 050535Z AUTO 00000KT 4SM BR CLR 20/18 A3020 RMK AO2 T01970184 =
2015-09-05 01:15 METAR KSHD 050515Z AUTO 00000KT 5SM BR SCT080 20/19 A3019 RMK AO2 T02010187 =
2015-09-05 00:55 METAR KSHD 050455Z AUTO 00000KT 7SM SCT039 SCT045 21/19 A3019 RMK AO2 T02060191
                 =
2015-09-05 00:35 METAR KSHD 050435Z AUTO 00000KT 7SM SCT048 21/19 A3019 RMK AO2 T02100193 =
2015-09-05 00:15 METAR KSHD 050415Z AUTO 00000KT 7SM SCT039 BKN048 21/19 A3019 RMK AO2 LTG DSNT
                 SW T02100192 =
2015-09-04 23:55 METAR KSHD 050355Z AUTO 00000KT 7SM BKN039 OVC046 21/19 A3019 RMK AO2 T02120194
                 =
2015-09-04 23:35 METAR KSHD 050335Z AUTO 00000KT 7SM SCT044 SCT050 SCT070 21/20 A3018 RMK AO2
                 T02130195 =
2015-09-04 23:15 METAR KSHD 050315Z AUTO 00000KT 7SM BKN070 21/19 A3018 RMK AO2 T02090194 =
2015-09-04 22:55 METAR KSHD 050255Z AUTO 00000KT 10SM BKN070 22/20 A3018 RMK AO2 T02150195 =
2015-09-04 22:35 METAR KSHD 050235Z AUTO 00000KT 10SM SCT070 22/19 A3018 RMK AO2 T02170194 =
2015-09-04 22:15 METAR KSHD 050215Z AUTO 00000KT 10SM CLR 22/19 A3018 RMK AO2 T02160193 =
2015-09-04 21:55 METAR KSHD 050155Z AUTO 15004KT 10SM CLR 22/19 A3018 RMK AO2 T02180190 =
2015-09-04 21:35 METAR KSHD 050135Z AUTO 00000KT 10SM SCT075 22/19 A3016 RMK AO2 T02230192 =
2015-09-04 21:15 METAR KSHD 050115Z AUTO 00000KT 10SM SCT075 22/19 A3014 RMK AO2 T02220192 =
2015-09-04 20:35 METAR KSHD 050035Z AUTO 00000KT 10SM CLR 23/19 A3013 RMK AO2 T02250189 =
2015-09-04 20:15 METAR KSHD 050015Z AUTO 00000KT 10SM CLR 22/19 A3012 RMK AO2 T02200187 =
2015-09-04 19:55 METAR KSHD 042355Z AUTO 00000KT 10SM CLR 23/18 A3012 RMK AO2 P0001 60001
                 T02250181 10316 20222 =
2015-09-04 19:35 METAR KSHD 042335Z AUTO 23004KT 10SM SCT048 SCT055 SCT075 23/18 A3012 RMK AO2
                 P0001 T02260183 =
2015-09-04 19:15 METAR KSHD 042315Z AUTO 23004KT 4SM +RA SCT048 BKN055 BKN070 25/17 A3012 RMK AO2
                 LTG DSNT S P0001 T02450169 =
2015-09-04 18:55 METAR KSHD 042255Z AUTO 00000KT 10SM SCT046 SCT070 25/15 A3012 RMK AO2 LTG DSNT
                 NE THRU S T02500154 =
2015-09-04 18:35 METAR KSHD 042235Z AUTO 16008KT 10SM SCT049 26/17 A3011 RMK AO2 LTG DSNT SE AND
                 S T02550174 =
2015-09-04 18:15 METAR KSHD 042215Z AUTO 16005G14KT 10SM VCTS SCT049 26/19 A3011 RMK AO2 LTG DSNT
                 SE T02560191 =
2015-09-04 17:55 METAR KSHD 042155Z AUTO 20005KT 10SM CLR 27/20 A3010 RMK AO2 LTG DSNT E AND SE
                 T02700195 =
2015-09-04 17:35 METAR KSHD 042135Z AUTO 15003KT 10SM CLR 28/19 A3009 RMK AO2 LTG DSNT ALQS
                 T02770190 =
2015-09-04 17:15 METAR KSHD 042115Z AUTO 15004KT 10SM CLR 31/17 A3009 RMK AO2 LTG DSNT ALQS
                 T03050170 =
2015-09-04 16:55 METAR KSHD 042055Z AUTO 03005KT 10SM CLR 31/19 A3008 RMK AO2 LTG DSNT SE THRU SW
                 T03090187 =
2015-09-04 16:35 METAR KSHD 042035Z AUTO 01008KT 10SM SCT045 32/20 A3007 RMK AO2 LTG DSNT E THRU
                 S T03150196 =
2015-09-04 16:15 METAR KSHD 042015Z AUTO 02006KT 10SM BKN043 BKN050 31/20 A3008 RMK AO2 T03110196
                 =
2015-09-04 15:55 METAR KSHD 041955Z AUTO 33006KT 10SM SCT045 BKN050 BKN060 32/19 A3007 RMK AO2
                 LTG DSNT W T03150194 =
2015-09-04 15:35 METAR KSHD 041935Z AUTO 32008KT 10SM SCT050 SCT060 31/20 A3006 RMK AO2 LTG DSNT
                 S T03080203 =
2015-09-04 15:15 METAR KSHD 041915Z AUTO 29008KT 10SM CLR 29/20 A3008 RMK AO2 LTG DSNT SE AND W
                 T02940203 =
2015-09-04 14:55 METAR KSHD 041855Z AUTO 32004KT 10SM CLR 30/19 A3008 RMK AO2 LTG DSNT E S AND W
                 T02960193 =
2015-09-04 14:35 METAR KSHD 041835Z AUTO 36005KT 10SM CLR 29/19 A3008 RMK AO2 LTG DSNT SE W AND
                 NW T02900192 =
2015-09-04 14:15 METAR KSHD 041815Z AUTO 02005KT 10SM CLR 29/19 A3009 RMK AO2 LTG DSNT W THRU E
                 T02860193 =
2015-09-04 13:55 METAR KSHD 041755Z AUTO 03007KT 10SM CLR 29/20 A3009 RMK AO2 LTG DSNT NE AND NW
                 T02850203 10312 20186 =
2015-09-04 13:15 METAR KSHD 041715Z AUTO 06005KT 10SM VCTS CLR 28/21 A3010 RMK AO2 LTG DSNT S
                 THRU NW T02820205 =
2015-09-04 12:55 METAR KSHD 041655Z AUTO 07007KT 10SM VCTS CLR 28/21 A3010 RMK AO2 LTG DSNT S
                 THRU NW T02810205 =
2015-09-04 12:35 METAR KSHD 041635Z AUTO 07009KT 10SM TS CLR 30/21 A3010 RMK AO2 LTG DSNT N THRU
                 S T03020205 =
2015-09-04 12:15 METAR KSHD 041615Z AUTO 08003KT 10SM VCTS CLR 30/21 A3009 RMK AO2 LTG DSNT N E
                 AND W T03040212 =
2015-09-04 11:55 METAR KSHD 041555Z AUTO 05003KT 10SM VCTS CLR 29/21 A3010 RMK AO2 LTG DSNT E AND
                 SE T02940210 =
2015-09-04 11:35 METAR KSHD 041535Z AUTO 04004KT 10SM CLR 29/21 A3010 RMK AO2 LTG DSNT E
                 T02890209 =
2015-09-04 11:15 METAR KSHD 041515Z AUTO 09003KT 10SM CLR 28/21 A3011 RMK AO2 T02830207 =
2015-09-04 10:35 METAR KSHD 041435Z AUTO 06003KT 10SM CLR 27/21 A3010 RMK AO2 T02710208 =
2015-09-04 10:15 METAR KSHD 041415Z AUTO 00000KT 10SM CLR 26/20 A3010 RMK AO2 T02610204 =

Support USWX by starting your Amazon purchase here.